sensor_id;sensor_type;location;lat;lon;timestamp;pressure;altitude;pressure_sealevel;temperature;humidity
55263;BME280;41125;48.752;9.168;2022-08-21T00:00:22;97010.72;;;17.08;56.66
55263;BME280;41125;48.752;9.168;2022-08-21T00:00:53;97009.91;;;17.07;56.50
55263;BME280;41125;48.752;9.168;2022-08-21T00:01:25;97017.34;;;17.07;56.64
55263;BME280;41125;48.752;9.168;2022-08-21T00:01:57;97010.25;;;17.06;56.80
55263;BME280;41125;48.752;9.168;2022-08-21T00:02:28;97014.13;;;17.05;56.70
55263;BME280;41125;48.752;9.168;2022-08-21T00:03:01;97013.31;;;17.04;56.98
55263;BME280;41125;48.752;9.168;2022-08-21T00:03:33;97014.13;;;17.05;56.55
55263;BME280;41125;48.752;9.168;2022-08-21T00:04:07;97012.19;;;17.05;56.57
55263;BME280;41125;48.752;9.168;2022-08-21T00:04:39;97012.50;;;17.04;57.00
55263;BME280;41125;48.752;9.168;2022-08-21T00:05:09;97017.19;;;17.03;57.24
55263;BME280;41125;48.752;9.168;2022-08-21T00:05:42;97018.47;;;17.06;56.80
55263;BME280;41125;48.752;9.168;2022-08-21T00:06:13;97013.00;;;17.06;56.97
55263;BME280;41125;48.752;9.168;2022-08-21T00:06:44;97021.87;;;17.03;57.29
55263;BME280;41125;48.752;9.168;2022-08-21T00:07:15;97016.72;;;17.01;56.79
55263;BME280;41125;48.752;9.168;2022-08-21T00:07:46;97012.69;;;16.99;57.05
55263;BME280;41125;48.752;9.168;2022-08-21T00:08:18;97012.69;;;16.99;56.83
55263;BME280;41125;48.752;9.168;2022-08-21T00:08:49;97014.63;;;16.98;56.93
55263;BME280;41125;48.752;9.168;2022-08-21T00:09:24;97009.97;;;16.99;56.67
55263;BME280;41125;48.752;9.168;2022-08-21T00:09:55;97011.13;;;16.98;56.97
55263;BME280;41125;48.752;9.168;2022-08-21T00:10:26;97012.69;;;16.99;56.89
55263;BME280;41125;48.752;9.168;2022-08-21T00:10:57;97019.34;;;16.98;57.60
55263;BME280;41125;48.752;9.168;2022-08-21T00:11:28;97014.84;;;16.93;57.15
55263;BME280;41125;48.752;9.168;2022-08-21T00:11:59;97016.31;;;16.91;57.37
55263;BME280;41125;48.752;9.168;2022-08-21T00:12:30;97016.66;;;16.89;57.43
55263;BME280;41125;48.752;9.168;2022-08-21T00:13:03;97019.72;;;16.88;57.60
55263;BME280;41125;48.752;9.168;2022-08-21T00:13:34;97017.78;;;16.88;58.05
55263;BME280;41125;48.752;9.168;2022-08-21T00:14:07;97014.22;;;16.88;57.93
55263;BME280;41125;48.752;9.168;2022-08-21T00:14:38;97013.91;;;16.89;57.82
55263;BME280;41125;48.752;9.168;2022-08-21T00:15:09;97014.22;;;16.88;58.38
55263;BME280;41125;48.752;9.168;2022-08-21T00:15:41;97006.34;;;16.86;58.10
55263;BME280;41125;48.752;9.168;2022-08-21T00:16:12;97013.28;;;16.84;57.89
55263;BME280;41125;48.752;9.168;2022-08-21T00:16:43;97010.06;;;16.82;57.73
55263;BME280;41125;48.752;9.168;2022-08-21T00:17:14;97012.34;;;16.80;57.91
55263;BME280;41125;48.752;9.168;2022-08-21T00:17:44;97005.25;;;16.79;58.02
55263;BME280;41125;48.752;9.168;2022-08-21T00:18:16;97004.44;;;16.78;57.72
55263;BME280;41125;48.752;9.168;2022-08-21T00:18:47;97005.25;;;16.79;58.06
55263;BME280;41125;48.752;9.168;2022-08-21T00:19:18;97002.84;;;16.77;58.08
55263;BME280;41125;48.752;9.168;2022-08-21T00:19:50;97011.53;;;16.79;58.29
55263;BME280;41125;48.752;9.168;2022-08-21T00:20:21;97004.44;;;16.78;58.12
55263;BME280;41125;48.752;9.168;2022-08-21T00:20:52;97004.78;;;16.77;58.56
55263;BME280;41125;48.752;9.168;2022-08-21T00:21:23;97007.84;;;16.75;58.78
55263;BME280;41125;48.752;9.168;2022-08-21T00:21:56;97004.63;;;16.73;58.64
55263;BME280;41125;48.752;9.168;2022-08-21T00:22:27;97010.44;;;16.71;58.51
55263;BME280;41125;48.752;9.168;2022-08-21T00:22:58;97000.59;;;16.70;58.81
55263;BME280;41125;48.752;9.168;2022-08-21T00:23:29;97004.81;;;16.68;58.82
55263;BME280;41125;48.752;9.168;2022-08-21T00:24:01;97001.44;;;16.62;59.27
55263;BME280;41125;48.752;9.168;2022-08-21T00:24:32;97011.44;;;16.58;59.75
55263;BME280;41125;48.752;9.168;2022-08-21T00:25:03;97000.47;;;16.58;59.56
55263;BME280;41125;48.752;9.168;2022-08-21T00:25:34;96998.87;;;16.57;59.33
55263;BME280;41125;48.752;9.168;2022-08-21T00:26:06;97008.22;;;16.56;59.87
55263;BME280;41125;48.752;9.168;2022-08-21T00:26:42;97005.50;;;16.56;59.82
55263;BME280;41125;48.752;9.168;2022-08-21T00:27:13;97002.75;;;16.56;59.79
55263;BME280;41125;48.752;9.168;2022-08-21T00:27:44;96996.13;;;16.57;59.69
55263;BME280;41125;48.752;9.168;2022-08-21T00:28:17;96998.87;;;16.57;59.38
55263;BME280;41125;48.752;9.168;2022-08-21T00:28:48;97000.47;;;16.58;59.10
55263;BME280;41125;48.752;9.168;2022-08-21T00:29:19;96999.34;;;16.59;59.38
55263;BME280;41125;48.752;9.168;2022-08-21T00:29:50;97002.09;;;16.59;59.21
55263;BME280;41125;48.752;9.168;2022-08-21T00:30:24;97004.84;;;16.59;59.01
55263;BME280;41125;48.752;9.168;2022-08-21T00:30:56;97003.69;;;16.60;59.30
55263;BME280;41125;48.752;9.168;2022-08-21T00:31:28;97007.56;;;16.59;59.38
55263;BME280;41125;48.752;9.168;2022-08-21T00:31:58;97001.28;;;16.59;59.24
55263;BME280;41125;48.752;9.168;2022-08-21T00:32:29;96995.00;;;16.58;59.18
55263;BME280;41125;48.752;9.168;2022-08-21T00:33:00;96997.75;;;16.58;58.93
55263;BME280;41125;48.752;9.168;2022-08-21T00:33:32;96997.75;;;16.58;58.85
55263;BME280;41125;48.752;9.168;2022-08-21T00:34:04;96996.63;;;16.59;58.52
55263;BME280;41125;48.752;9.168;2022-08-21T00:34:35;96997.41;;;16.60;58.53
55263;BME280;41125;48.752;9.168;2022-08-21T00:35:08;96996.63;;;16.59;58.47
55263;BME280;41125;48.752;9.168;2022-08-21T00:35:41;96993.88;;;16.59;58.78
55263;BME280;41125;48.752;9.168;2022-08-21T00:36:12;96992.75;;;16.60;58.50
55263;BME280;41125;48.752;9.168;2022-08-21T00:36:44;97000.97;;;16.60;58.62
55263;BME280;41125;48.752;9.168;2022-08-21T00:37:16;96998.22;;;16.60;58.50
55263;BME280;41125;48.752;9.168;2022-08-21T00:37:47;97003.69;;;16.60;58.78
55263;BME280;41125;48.752;9.168;2022-08-21T00:38:18;96997.41;;;16.60;58.44
55263;BME280;41125;48.752;9.168;2022-08-21T00:38:49;96994.69;;;16.60;58.55
55263;BME280;41125;48.752;9.168;2022-08-21T00:39:20;96991.13;;;16.59;58.69
55263;BME280;41125;48.752;9.168;2022-08-21T00:39:52;96996.63;;;16.59;58.78
55263;BME280;41125;48.752;9.168;2022-08-21T00:40:28;96994.69;;;16.60;58.87
55263;BME280;41125;48.752;9.168;2022-08-21T00:41:00;96998.22;;;16.60;58.93
55263;BME280;41125;48.752;9.168;2022-08-21T00:41:36;96997.75;;;16.58;58.85
55263;BME280;41125;48.752;9.168;2022-08-21T00:42:09;97006.78;;;16.59;58.93
55263;BME280;41125;48.752;9.168;2022-08-21T00:42:40;96999.69;;;16.58;59.14
55263;BME280;41125;48.752;9.168;2022-08-21T00:43:13;97002.41;;;16.58;58.99
55263;BME280;41125;48.752;9.168;2022-08-21T00:43:44;97003.56;;;16.57;58.75
55263;BME280;41125;48.752;9.168;2022-08-21T00:44:15;97004.34;;;16.57;58.75
55263;BME280;41125;48.752;9.168;2022-08-21T00:44:47;97008.22;;;16.56;58.67
55263;BME280;41125;48.752;9.168;2022-08-21T00:45:20;97001.12;;;16.55;59.11
55263;BME280;41125;48.752;9.168;2022-08-21T00:45:52;96993.06;;;16.59;58.59
55263;BME280;41125;48.752;9.168;2022-08-21T00:46:23;96997.41;;;16.60;58.53
55263;BME280;41125;48.752;9.168;2022-08-21T00:46:54;96997.41;;;16.60;58.32
55263;BME280;41125;48.752;9.168;2022-08-21T00:47:25;97004.34;;;16.57;58.57
55263;BME280;41125;48.752;9.168;2022-08-21T00:47:56;97002.28;;;16.54;58.42
55263;BME280;41125;48.752;9.168;2022-08-21T00:48:28;97004.53;;;16.52;59.39
55263;BME280;41125;48.752;9.168;2022-08-21T00:48:58;97014.53;;;16.48;60.46
55263;BME280;41125;48.752;9.168;2022-08-21T00:49:29;96998.75;;;16.45;59.71
55263;BME280;41125;48.752;9.168;2022-08-21T00:50:04;96999.09;;;16.43;59.47
55263;BME280;41125;48.752;9.168;2022-08-21T00:50:36;97001.50;;;16.45;59.43
55263;BME280;41125;48.752;9.168;2022-08-21T00:51:15;96997.63;;;16.46;58.50
55263;BME280;41125;48.752;9.168;2022-08-21T00:51:57;97005.03;;;16.46;58.87
55263;BME280;41125;48.752;9.168;2022-08-21T00:52:30;96996.00;;;16.45;58.49
55263;BME280;41125;48.752;9.168;2022-08-21T00:53:03;96999.88;;;16.44;58.88
55263;BME280;41125;48.752;9.168;2022-08-21T00:53:37;96998.28;;;16.43;59.20
55263;BME280;41125;48.752;9.168;2022-08-21T00:54:08;96993.94;;;16.42;59.00
55263;BME280;41125;48.752;9.168;2022-08-21T00:54:40;96995.88;;;16.41;59.24
55263;BME280;41125;48.752;9.168;2022-08-21T00:55:12;96995.53;;;16.43;59.17
55263;BME280;41125;48.752;9.168;2022-08-21T00:55:44;97002.28;;;16.46;58.46
55263;BME280;41125;48.752;9.168;2022-08-21T00:56:15;96992.16;;;16.46;58.69
55263;BME280;41125;48.752;9.168;2022-08-21T00:56:48;96995.22;;;16.45;59.31
55263;BME280;41125;48.752;9.168;2022-08-21T00:57:21;97000.53;;;16.41;59.47
55263;BME280;41125;48.752;9.168;2022-08-21T00:57:55;97002.78;;;16.39;59.59
55263;BME280;41125;48.752;9.168;2022-08-21T00:58:27;97001.19;;;16.38;59.80
55263;BME280;41125;48.752;9.168;2022-08-21T00:59:01;97000.72;;;16.36;59.39
55263;BME280;41125;48.752;9.168;2022-08-21T00:59:34;96994.91;;;16.37;59.67
55263;BME280;41125;48.752;9.168;2022-08-21T01:00:09;96998.78;;;16.36;59.82
55263;BME280;41125;48.752;9.168;2022-08-21T01:00:41;96997.50;;;16.34;60.16
55263;BME280;41125;48.752;9.168;2022-08-21T01:01:12;96997.81;;;16.32;59.87
55263;BME280;41125;48.752;9.168;2022-08-21T01:01:44;96993.94;;;16.33;59.52
55263;BME280;41125;48.752;9.168;2022-08-21T01:02:15;96996.38;;;16.35;59.40
55263;BME280;41125;48.752;9.168;2022-08-21T01:02:46;96993.16;;;16.33;59.38
55263;BME280;41125;48.752;9.168;2022-08-21T01:03:20;96987.66;;;16.33;59.61
55263;BME280;41125;48.752;9.168;2022-08-21T01:03:51;96993.16;;;16.33;59.84
55263;BME280;41125;48.752;9.168;2022-08-21T01:04:22;96993.47;;;16.31;60.50
55263;BME280;41125;48.752;9.168;2022-08-21T01:04:54;96994.59;;;16.30;59.82
55263;BME280;41125;48.752;9.168;2022-08-21T01:05:25;96991.06;;;16.30;60.17
55263;BME280;41125;48.752;9.168;2022-08-21T01:05:57;96991.53;;;16.32;59.43
55263;BME280;41125;48.752;9.168;2022-08-21T01:06:28;96987.66;;;16.33;59.38
55263;BME280;41125;48.752;9.168;2022-08-21T01:06:59;96994.59;;;16.30;59.60
55263;BME280;41125;48.752;9.168;2022-08-21T01:07:30;96996.88;;;16.28;59.82
55263;BME280;41125;48.752;9.168;2022-08-21T01:08:02;96989.00;;;16.27;60.41
55263;BME280;41125;48.752;9.168;2022-08-21T01:08:33;96988.53;;;16.25;60.60
55263;BME280;41125;48.752;9.168;2022-08-21T01:09:05;96985.31;;;16.23;60.43
55263;BME280;41125;48.752;9.168;2022-08-21T01:09:36;96992.72;;;16.22;60.18
55263;BME280;41125;48.752;9.168;2022-08-21T01:10:08;96992.72;;;16.22;60.16
55263;BME280;41125;48.752;9.168;2022-08-21T01:10:39;96986.44;;;16.22;60.04
55263;BME280;41125;48.752;9.168;2022-08-21T01:11:10;96990.78;;;16.23;60.26
55263;BME280;41125;48.752;9.168;2022-08-21T01:11:41;96985.31;;;16.23;59.97
55263;BME280;41125;48.752;9.168;2022-08-21T01:12:15;96988.84;;;16.23;60.03
55263;BME280;41125;48.752;9.168;2022-08-21T01:12:47;96989.66;;;16.24;60.46
55263;BME280;41125;48.752;9.168;2022-08-21T01:13:18;96985.63;;;16.21;60.57
55263;BME280;41125;48.752;9.168;2022-08-21T01:13:49;96994.97;;;16.20;60.56
55263;BME280;41125;48.752;9.168;2022-08-21T01:14:22;96990.78;;;16.23;60.27
55263;BME280;41125;48.752;9.168;2022-08-21T01:14:53;96991.91;;;16.22;59.89
55263;BME280;41125;48.752;9.168;2022-08-21T01:15:24;96997.06;;;16.23;60.17
55263;BME280;41125;48.752;9.168;2022-08-21T01:15:58;96994.81;;;16.25;59.67
55263;BME280;41125;48.752;9.168;2022-08-21T01:16:30;96992.19;;;16.29;59.24
55263;BME280;41125;48.752;9.168;2022-08-21T01:17:01;96984.34;;;16.27;59.28
55263;BME280;41125;48.752;9.168;2022-08-21T01:17:33;96991.75;;;16.27;59.62
55263;BME280;41125;48.752;9.168;2022-08-21T01:18:07;96996.75;;;16.25;60.22
55263;BME280;41125;48.752;9.168;2022-08-21T01:18:38;96991.91;;;16.22;60.62
55263;BME280;41125;48.752;9.168;2022-08-21T01:19:09;96993.03;;;16.21;60.59
55263;BME280;41125;48.752;9.168;2022-08-21T01:19:40;96991.44;;;16.20;60.45
55263;BME280;41125;48.752;9.168;2022-08-21T01:20:11;96987.09;;;16.19;60.09
55263;BME280;41125;48.752;9.168;2022-08-21T01:20:44;96993.22;;;16.16;60.35
55263;BME280;41125;48.752;9.168;2022-08-21T01:21:16;96987.75;;;16.16;60.19
55263;BME280;41125;48.752;9.168;2022-08-21T01:21:48;96990.16;;;16.17;59.94
55263;BME280;41125;48.752;9.168;2022-08-21T01:22:19;96994.81;;;16.17;60.02
55263;BME280;41125;48.752;9.168;2022-08-21T01:22:51;96995.47;;;16.14;60.69
55263;BME280;41125;48.752;9.168;2022-08-21T01:23:22;96988.72;;;16.11;60.18
55263;BME280;41125;48.752;9.168;2022-08-21T01:23:53;96993.38;;;16.11;60.79
55263;BME280;41125;48.752;9.168;2022-08-21T01:24:25;96992.09;;;16.08;61.06
55263;BME280;41125;48.752;9.168;2022-08-21T01:24:56;96994.19;;;16.02;61.09
55263;BME280;41125;48.752;9.168;2022-08-21T01:25:27;96991.78;;;16.01;61.14
55263;BME280;41125;48.752;9.168;2022-08-21T01:25:58;96990.97;;;16.00;61.39
55263;BME280;41125;48.752;9.168;2022-08-21T01:26:30;96989.38;;;15.99;61.78
55263;BME280;41125;48.752;9.168;2022-08-21T01:27:02;96993.56;;;15.97;62.26
55263;BME280;41125;48.752;9.168;2022-08-21T01:27:33;96994.56;;;15.92;62.59
55263;BME280;41125;48.752;9.168;2022-08-21T01:28:09;96997.94;;;15.89;62.20
55263;BME280;41125;48.752;9.168;2022-08-21T01:28:45;96992.16;;;15.91;63.21
55263;BME280;41125;48.752;9.168;2022-08-21T01:29:26;96990.87;;;15.88;62.23
55263;BME280;41125;48.752;9.168;2022-08-21T01:30:07;96990.53;;;15.90;61.78
55263;BME280;41125;48.752;9.168;2022-08-21T01:30:41;96994.56;;;15.92;61.68
55263;BME280;41125;48.752;9.168;2022-08-21T01:31:13;96988.28;;;15.92;61.30
55263;BME280;41125;48.752;9.168;2022-08-21T01:31:45;96990.69;;;15.93;61.45
55263;BME280;41125;48.752;9.168;2022-08-21T01:32:17;96991.16;;;15.95;61.28
55263;BME280;41125;48.752;9.168;2022-08-21T01:32:48;96993.88;;;15.95;61.50
55263;BME280;41125;48.752;9.168;2022-08-21T01:33:19;96991.63;;;15.97;61.04
55263;BME280;41125;48.752;9.168;2022-08-21T01:33:52;96998.72;;;15.98;61.03
55263;BME280;41125;48.752;9.168;2022-08-21T01:34:24;96986.97;;;15.98;61.16
55263;BME280;41125;48.752;9.168;2022-08-21T01:34:55;96989.38;;;15.99;61.41
55263;BME280;41125;48.752;9.168;2022-08-21T01:35:25;96989.38;;;15.99;60.92
55263;BME280;41125;48.752;9.168;2022-08-21T01:35:56;96984.88;;;16.03;60.91
55263;BME280;41125;48.752;9.168;2022-08-21T01:36:31;96977.13;;;16.05;60.50
55263;BME280;41125;48.752;9.168;2022-08-21T01:37:01;96984.88;;;16.03;61.15
55263;BME280;41125;48.752;9.168;2022-08-21T01:37:33;96988.72;;;16.02;60.74
55263;BME280;41125;48.752;9.168;2022-08-21T01:38:04;96991.47;;;16.02;60.74
55263;BME280;41125;48.752;9.168;2022-08-21T01:38:35;96986.31;;;16.01;61.34
55263;BME280;41125;48.752;9.168;2022-08-21T01:39:06;96980.84;;;16.01;61.45
55263;BME280;41125;48.752;9.168;2022-08-21T01:39:38;96990.97;;;16.00;61.31
55263;BME280;41125;48.752;9.168;2022-08-21T01:40:10;96986.31;;;16.01;61.28
55263;BME280;41125;48.752;9.168;2022-08-21T01:40:41;96980.03;;;16.00;61.31
55263;BME280;41125;48.752;9.168;2022-08-21T01:41:13;96983.09;;;15.99;61.31
55263;BME280;41125;48.752;9.168;2022-08-21T01:41:45;96986.81;;;15.94;61.69
55263;BME280;41125;48.752;9.168;2022-08-21T01:42:16;96979.75;;;15.93;61.60
55263;BME280;41125;48.752;9.168;2022-08-21T01:42:46;96980.56;;;15.94;61.44
55263;BME280;41125;48.752;9.168;2022-08-21T01:43:21;96984.53;;;15.96;61.58
55263;BME280;41125;48.752;9.168;2022-08-21T01:43:54;96984.53;;;15.96;61.08
55263;BME280;41125;48.752;9.168;2022-08-21T01:44:26;96979.88;;;15.97;61.17
55263;BME280;41125;48.752;9.168;2022-08-21T01:44:57;96984.53;;;15.96;61.40
55263;BME280;41125;48.752;9.168;2022-08-21T01:45:28;96982.63;;;15.97;61.69
55263;BME280;41125;48.752;9.168;2022-08-21T01:45:59;96982.94;;;15.95;61.62
55263;BME280;41125;48.752;9.168;2022-08-21T01:46:30;96978.59;;;15.94;62.08
55263;BME280;41125;48.752;9.168;2022-08-21T01:47:02;96983.63;;;15.92;62.09
55263;BME280;41125;48.752;9.168;2022-08-21T01:47:34;96985.22;;;15.93;62.06
55263;BME280;41125;48.752;9.168;2022-08-21T01:48:05;96979.75;;;15.93;61.71
55263;BME280;41125;48.752;9.168;2022-08-21T01:48:36;96981.69;;;15.93;61.50
55263;BME280;41125;48.752;9.168;2022-08-21T01:49:07;96977.34;;;15.92;61.56
55263;BME280;41125;48.752;9.168;2022-08-21T01:49:39;96982.50;;;15.93;61.85
55263;BME280;41125;48.752;9.168;2022-08-21T01:50:13;96977.34;;;15.92;61.58
55263;BME280;41125;48.752;9.168;2022-08-21T01:50:45;96980.06;;;15.92;61.85
55263;BME280;41125;48.752;9.168;2022-08-21T01:51:20;96979.28;;;15.91;61.22
55263;BME280;41125;48.752;9.168;2022-08-21T01:51:51;96976.06;;;15.89;61.95
55263;BME280;41125;48.752;9.168;2022-08-21T01:52:25;96974.78;;;15.87;61.85
55263;BME280;41125;48.752;9.168;2022-08-21T01:52:57;96970.91;;;15.88;61.64
55263;BME280;41125;48.752;9.168;2022-08-21T01:53:27;96984.25;;;15.89;61.72
55263;BME280;41125;48.752;9.168;2022-08-21T01:53:58;96983.47;;;15.89;61.86
55263;BME280;41125;48.752;9.168;2022-08-21T01:54:30;96977.66;;;15.90;62.10
55263;BME280;41125;48.752;9.168;2022-08-21T01:55:01;96972.84;;;15.87;62.01
55263;BME280;41125;48.752;9.168;2022-08-21T01:55:32;96977.84;;;15.85;62.19
55263;BME280;41125;48.752;9.168;2022-08-21T01:56:05;96975.41;;;15.84;62.54
55263;BME280;41125;48.752;9.168;2022-08-21T01:56:40;96982.00;;;15.83;62.24
55263;BME280;41125;48.752;9.168;2022-08-21T01:57:12;96969.13;;;15.83;62.62
55263;BME280;41125;48.752;9.168;2022-08-21T01:57:43;96971.06;;;15.83;62.87
55263;BME280;41125;48.752;9.168;2022-08-21T01:58:17;96969.78;;;15.80;63.08
55263;BME280;41125;48.752;9.168;2022-08-21T01:58:48;96979.75;;;15.76;62.86
55263;BME280;41125;48.752;9.168;2022-08-21T01:59:20;96983.63;;;15.75;62.79
55263;BME280;41125;48.752;9.168;2022-08-21T01:59:51;96969.16;;;15.74;62.64
55263;BME280;41125;48.752;9.168;2022-08-21T02:00:22;96969.78;;;15.80;62.22
55263;BME280;41125;48.752;9.168;2022-08-21T02:00:54;96971.41;;;15.81;62.14
55263;BME280;41125;48.752;9.168;2022-08-21T02:01:25;96971.41;;;15.81;62.08
55263;BME280;41125;48.752;9.168;2022-08-21T02:01:55;96968.66;;;15.81;62.69
55263;BME280;41125;48.752;9.168;2022-08-21T02:02:26;96968.97;;;15.80;62.78
55263;BME280;41125;48.752;9.168;2022-08-21T02:02:57;96970.44;;;15.77;63.66
55263;BME280;41125;48.752;9.168;2022-08-21T02:03:28;96967.22;;;15.75;63.21
55263;BME280;41125;48.752;9.168;2022-08-21T02:03:59;96963.19;;;15.72;62.97
55263;BME280;41125;48.752;9.168;2022-08-21T02:04:31;96966.25;;;15.71;62.83
55263;BME280;41125;48.752;9.168;2022-08-21T02:05:03;96970.91;;;15.70;62.67
55263;BME280;41125;48.752;9.168;2022-08-21T02:05:34;96966.91;;;15.68;62.53
55263;BME280;41125;48.752;9.168;2022-08-21T02:06:06;96970.91;;;15.70;62.40
55263;BME280;41125;48.752;9.168;2022-08-21T02:06:37;96973.34;;;15.72;62.41
55263;BME280;41125;48.752;9.168;2022-08-21T02:07:08;96962.38;;;15.72;62.59
55263;BME280;41125;48.752;9.168;2022-08-21T02:07:41;96960.13;;;15.74;62.80
55263;BME280;41125;48.752;9.168;2022-08-21T02:08:13;96960.94;;;15.74;62.48
55263;BME280;41125;48.752;9.168;2022-08-21T02:08:44;96955.16;;;15.76;62.72
55263;BME280;41125;48.752;9.168;2022-08-21T02:09:15;96965.75;;;15.78;62.37
55263;BME280;41125;48.752;9.168;2022-08-21T02:09:46;96956.44;;;15.79;62.43
55263;BME280;41125;48.752;9.168;2022-08-21T02:10:22;96955.62;;;15.78;62.95
55263;BME280;41125;48.752;9.168;2022-08-21T02:10:53;96960.28;;;15.78;63.03
55263;BME280;41125;48.752;9.168;2022-08-21T02:11:24;96954.03;;;15.77;63.24
55263;BME280;41125;48.752;9.168;2022-08-21T02:11:55;96959.50;;;15.77;63.08
55263;BME280;41125;48.752;9.168;2022-08-21T02:12:27;96963.03;;;15.78;62.71
55263;BME280;41125;48.752;9.168;2022-08-21T02:12:58;96958.38;;;15.78;62.78
55263;BME280;41125;48.752;9.168;2022-08-21T02:13:31;96954.03;;;15.77;62.55
55263;BME280;41125;48.752;9.168;2022-08-21T02:14:01;96959.97;;;15.79;62.84
55263;BME280;41125;48.752;9.168;2022-08-21T02:14:32;96949.50;;;15.81;62.20
55263;BME280;41125;48.752;9.168;2022-08-21T02:15:04;96958.53;;;15.82;62.19
55263;BME280;41125;48.752;9.168;2022-08-21T02:15:35;96963.19;;;15.81;62.29
55263;BME280;41125;48.752;9.168;2022-08-21T02:16:07;96954.97;;;15.81;62.51
55263;BME280;41125;48.752;9.168;2022-08-21T02:16:39;96958.84;;;15.80;62.18
55263;BME280;41125;48.752;9.168;2022-08-21T02:17:10;96959.66;;;15.81;62.89
55263;BME280;41125;48.752;9.168;2022-08-21T02:17:42;96966.56;;;15.78;62.77
55263;BME280;41125;48.752;9.168;2022-08-21T02:18:13;96956.75;;;15.77;63.00
55263;BME280;41125;48.752;9.168;2022-08-21T02:18:45;96957.88;;;15.76;63.21
55263;BME280;41125;48.752;9.168;2022-08-21T02:19:16;96953.84;;;15.73;63.35
55263;BME280;41125;48.752;9.168;2022-08-21T02:19:47;96954.19;;;15.72;62.92
55263;BME280;41125;48.752;9.168;2022-08-21T02:20:24;96954.19;;;15.72;63.26
55263;BME280;41125;48.752;9.168;2022-08-21T02:20:55;96951.44;;;15.72;63.06
55263;BME280;41125;48.752;9.168;2022-08-21T02:21:26;96952.25;;;15.72;63.07
55263;BME280;41125;48.752;9.168;2022-08-21T02:21:57;96953.84;;;15.73;63.04
55263;BME280;41125;48.752;9.168;2022-08-21T02:22:29;96958.53;;;15.73;63.47
55263;BME280;41125;48.752;9.168;2022-08-21T02:23:00;96964.00;;;15.73;63.16
55263;BME280;41125;48.752;9.168;2022-08-21T02:23:31;96960.13;;;15.74;63.65
55263;BME280;41125;48.752;9.168;2022-08-21T02:24:03;96957.41;;;15.74;63.11
55263;BME280;41125;48.752;9.168;2022-08-21T02:24:35;96957.88;;;15.76;63.30
55263;BME280;41125;48.752;9.168;2022-08-21T02:25:06;96957.88;;;15.76;62.98
55263;BME280;41125;48.752;9.168;2022-08-21T02:25:38;96955.62;;;15.78;62.84
55263;BME280;41125;48.752;9.168;2022-08-21T02:26:09;96952.87;;;15.78;63.00
55263;BME280;41125;48.752;9.168;2022-08-21T02:26:39;96950.47;;;15.77;63.63
55263;BME280;41125;48.752;9.168;2022-08-21T02:27:10;96950.81;;;15.75;63.09
55263;BME280;41125;48.752;9.168;2022-08-21T02:27:43;96960.94;;;15.74;63.04
55263;BME280;41125;48.752;9.168;2022-08-21T02:28:14;96957.41;;;15.74;63.14
55263;BME280;41125;48.752;9.168;2022-08-21T02:28:46;96961.25;;;15.73;63.23
55263;BME280;41125;48.752;9.168;2022-08-21T02:29:17;96954.50;;;15.70;62.96
55263;BME280;41125;48.752;9.168;2022-08-21T02:29:48;96959.16;;;15.70;63.30
55263;BME280;41125;48.752;9.168;2022-08-21T02:30:22;96960.78;;;15.71;63.16
55263;BME280;41125;48.752;9.168;2022-08-21T02:30:53;96961.75;;;15.75;62.72
55263;BME280;41125;48.752;9.168;2022-08-21T02:31:26;96949.19;;;15.74;62.33
55263;BME280;41125;48.752;9.168;2022-08-21T02:32:00;96945.97;;;15.72;62.36
55263;BME280;41125;48.752;9.168;2022-08-21T02:32:32;96958.53;;;15.73;62.48
55263;BME280;41125;48.752;9.168;2022-08-21T02:33:04;96958.53;;;15.73;62.57
55263;BME280;41125;48.752;9.168;2022-08-21T02:33:35;96952.25;;;15.72;62.34
55263;BME280;41125;48.752;9.168;2022-08-21T02:34:06;96960.78;;;15.71;62.22
55263;BME280;41125;48.752;9.168;2022-08-21T02:34:37;96955.16;;;15.67;62.42
55263;BME280;41125;48.752;9.168;2022-08-21T02:35:08;96950.47;;;15.68;62.61
55263;BME280;41125;48.752;9.168;2022-08-21T02:35:40;96954.81;;;15.69;62.77
55263;BME280;41125;48.752;9.168;2022-08-21T02:36:12;96947.75;;;15.68;62.56
55263;BME280;41125;48.752;9.168;2022-08-21T02:36:43;96945.00;;;15.68;62.48
55263;BME280;41125;48.752;9.168;2022-08-21T02:37:17;96946.63;;;15.69;63.55
55263;BME280;41125;48.752;9.168;2022-08-21T02:37:49;96954.66;;;15.65;63.15
55263;BME280;41125;48.752;9.168;2022-08-21T02:38:22;96949.03;;;15.62;63.61
55263;BME280;41125;48.752;9.168;2022-08-21T02:38:53;96957.91;;;15.59;63.49
55263;BME280;41125;48.752;9.168;2022-08-21T02:39:24;96958.53;;;15.56;63.43
55263;BME280;41125;48.752;9.168;2022-08-21T02:39:55;96959.19;;;15.53;63.32
55263;BME280;41125;48.752;9.168;2022-08-21T02:40:34;96957.25;;;15.53;63.63
55263;BME280;41125;48.752;9.168;2022-08-21T02:41:07;96950.97;;;15.53;63.72
55263;BME280;41125;48.752;9.168;2022-08-21T02:41:38;96953.72;;;15.53;63.41
55263;BME280;41125;48.752;9.168;2022-08-21T02:42:09;96957.56;;;15.52;63.56
55263;BME280;41125;48.752;9.168;2022-08-21T02:42:40;96955.62;;;15.52;63.51
55263;BME280;41125;48.752;9.168;2022-08-21T02:43:14;96955.62;;;15.52;63.39
55263;BME280;41125;48.752;9.168;2022-08-21T02:43:45;96951.78;;;15.53;63.71
55263;BME280;41125;48.752;9.168;2022-08-21T02:44:18;96959.97;;;15.53;63.57
55263;BME280;41125;48.752;9.168;2022-08-21T02:44:49;96954.50;;;15.53;63.44
55263;BME280;41125;48.752;9.168;2022-08-21T02:45:21;96959.19;;;15.53;63.36
55263;BME280;41125;48.752;9.168;2022-08-21T02:45:53;96955.97;;;15.51;63.78
55263;BME280;41125;48.752;9.168;2022-08-21T02:46:25;96952.09;;;15.52;63.58
55263;BME280;41125;48.752;9.168;2022-08-21T02:46:57;96958.69;;;15.51;63.68
55263;BME280;41125;48.752;9.168;2022-08-21T02:47:28;96948.06;;;15.49;64.07
55263;BME280;41125;48.752;9.168;2022-08-21T02:48:00;96955.16;;;15.50;64.46
55263;BME280;41125;48.752;9.168;2022-08-21T02:48:32;96952.75;;;15.49;63.98
55263;BME280;41125;48.752;9.168;2022-08-21T02:49:04;96963.69;;;15.49;64.41